createdAt,value
2023-03-17T00:01:19.848Z,100.00
2023-03-17T00:04:25.407Z,100.00
2023-03-17T00:07:30.036Z,100.00
2023-03-17T00:10:33.260Z,100.00
2023-03-17T00:13:36.503Z,100.00
2023-03-17T00:16:42.289Z,100.00
2023-03-17T00:19:45.634Z,100.00
2023-03-17T00:22:51.057Z,100.00
2023-03-17T00:25:54.466Z,100.00
2023-03-17T00:28:57.922Z,100.00
2023-03-17T00:32:01.162Z,100.00
2023-03-17T00:35:06.117Z,100.00
2023-03-17T00:38:16.981Z,100.00
2023-03-17T00:41:20.192Z,100.00
2023-03-17T00:44:25.485Z,100.00
2023-03-17T00:47:28.988Z,100.00
2023-03-17T00:50:32.792Z,100.00
2023-03-17T00:53:40.556Z,100.00
2023-03-17T00:56:45.137Z,100.00
2023-03-17T00:59:48.438Z,100.00
2023-03-17T01:02:52.767Z,100.00
2023-03-17T01:05:57.989Z,100.00
2023-03-17T01:09:03.749Z,100.00
2023-03-17T01:12:08.188Z,100.00
2023-03-17T01:15:12.667Z,100.00
2023-03-17T01:18:18.239Z,100.00
2023-03-17T01:21:22.459Z,100.00
2023-03-17T01:24:28.480Z,100.00
2023-03-17T01:27:36.454Z,100.00
2023-03-17T01:30:41.395Z,100.00
2023-03-17T01:33:44.913Z,100.00
2023-03-17T01:36:48.525Z,100.00
2023-03-17T01:39:53.864Z,100.00
2023-03-17T01:43:04.256Z,100.00
2023-03-17T01:46:27.361Z,100.00
2023-03-17T01:49:35.612Z,100.00
2023-03-17T01:52:39.652Z,100.00
2023-03-17T01:55:47.048Z,100.00
2023-03-17T01:58:55.125Z,100.00
2023-03-17T02:02:00.664Z,100.00
2023-03-17T02:05:05.732Z,100.00
2023-03-17T02:08:12.762Z,100.00
2023-03-17T02:11:17.458Z,100.00
2023-03-17T02:14:20.652Z,100.00
2023-03-17T02:17:26.789Z,100.00
2023-03-17T02:21:10.420Z,100.00
2023-03-17T02:24:20.817Z,100.00
2023-03-17T02:27:31.121Z,100.00
2023-03-17T02:30:36.777Z,100.00
2023-03-17T02:33:40.113Z,100.00
2023-03-17T02:36:43.605Z,100.00
2023-03-17T02:39:48.351Z,100.00
2023-03-17T02:42:52.341Z,100.00
2023-03-17T02:45:55.558Z,100.00
2023-03-17T02:48:59.192Z,100.00
2023-03-17T02:52:02.553Z,100.00
2023-03-17T02:55:08.252Z,100.00
2023-03-17T02:58:11.807Z,100.00
2023-03-17T03:01:15.609Z,100.00
2023-03-17T03:04:20.092Z,100.00
2023-03-17T03:07:23.805Z,100.00
2023-03-17T03:10:28.618Z,100.00
2023-03-17T03:13:32.197Z,100.00
2023-03-17T03:16:35.988Z,100.00
2023-03-17T03:19:39.302Z,100.00
2023-03-17T03:22:42.587Z,100.00
2023-03-17T03:25:47.260Z,100.00
2023-03-17T03:28:50.571Z,100.00
2023-03-17T03:31:54.071Z,100.00
2023-03-17T03:34:57.963Z,100.00
2023-03-17T03:38:01.210Z,100.00
2023-03-17T03:41:06.317Z,100.00
2023-03-17T03:44:09.589Z,100.00
2023-03-17T03:47:13.163Z,100.00
2023-03-17T03:50:16.756Z,100.00
2023-03-17T03:53:20.169Z,100.00
2023-03-17T03:56:25.440Z,100.00
2023-03-17T03:59:29.307Z,100.00
2023-03-17T04:02:32.811Z,100.00
2023-03-17T04:05:36.033Z,100.00
2023-03-17T04:08:39.286Z,100.00
2023-03-17T04:11:43.833Z,100.00
2023-03-17T04:14:47.160Z,100.00
2023-03-17T04:17:50.342Z,100.00
2023-03-17T04:20:53.530Z,100.00
2023-03-17T04:23:56.712Z,100.00
2023-03-17T04:27:01.310Z,100.00
2023-03-17T04:30:05.231Z,100.00
2023-03-17T04:34:19.079Z,100.00
2023-03-17T04:37:22.617Z,100.00
2023-03-17T04:40:25.705Z,100.00
2023-03-17T04:43:28.878Z,100.00
2023-03-17T04:46:32.289Z,100.00
2023-03-17T04:49:36.926Z,100.00
2023-03-17T04:52:40.319Z,100.00
2023-03-17T04:55:43.549Z,100.00
2023-03-17T04:58:46.741Z,100.00
2023-03-17T05:01:49.921Z,100.00
2023-03-17T05:04:54.874Z,100.00
2023-03-17T05:07:58.065Z,100.00
2023-03-17T05:11:01.672Z,100.00
2023-03-17T05:14:04.861Z,100.00
2023-03-17T05:17:08.442Z,100.00
2023-03-17T05:20:14.393Z,100.00
2023-03-17T05:23:17.631Z,100.00
2023-03-17T05:26:21.141Z,100.00
2023-03-17T05:29:24.349Z,100.00
2023-03-17T05:32:27.577Z,100.00
2023-03-17T05:35:32.209Z,100.00
2023-03-17T05:38:35.372Z,100.00
2023-03-17T05:41:38.571Z,100.00
2023-03-17T05:44:41.690Z,100.00
2023-03-17T05:47:46.337Z,100.00
2023-03-17T05:50:50.860Z,100.00
2023-03-17T05:53:54.175Z,100.00
2023-03-17T05:56:57.407Z,100.00
2023-03-17T06:00:00.564Z,100.00
2023-03-17T06:03:03.954Z,100.00
2023-03-17T06:06:09.237Z,100.00
2023-03-17T06:09:12.407Z,100.00
2023-03-17T06:12:15.654Z,100.00
2023-03-17T06:15:19.341Z,100.00
2023-03-17T06:18:22.610Z,100.00
2023-03-17T06:21:27.137Z,100.00
2023-03-17T06:24:30.467Z,100.00
2023-03-17T06:27:33.770Z,100.00
2023-03-17T06:30:40.556Z,100.00
2023-03-17T06:33:43.984Z,100.00
2023-03-17T06:36:49.220Z,100.00
2023-03-17T06:39:52.419Z,100.00
2023-03-17T06:42:55.588Z,100.00
2023-03-17T06:45:58.726Z,100.00
2023-03-17T06:49:03.343Z,100.00
2023-03-17T06:52:09.370Z,100.00
2023-03-17T06:55:12.644Z,100.00
2023-03-17T06:58:15.936Z,100.00
2023-03-17T07:01:19.119Z,100.00
2023-03-17T07:04:22.370Z,100.00
2023-03-17T07:07:27.589Z,100.00
2023-03-17T07:10:31.840Z,100.00
2023-03-17T07:13:37.360Z,100.00
2023-03-17T07:16:40.591Z,100.00
2023-03-17T07:19:43.899Z,100.00
2023-03-17T07:22:48.517Z,100.00
2023-03-17T07:25:52.555Z,100.00
2023-03-17T07:28:55.893Z,100.00
2023-03-17T07:31:59.083Z,100.00
2023-03-17T07:35:02.266Z,100.00
2023-03-17T07:38:07.018Z,100.00
2023-03-17T07:41:11.036Z,99.95
2023-03-17T07:44:14.646Z,98.81
2023-03-17T07:47:17.851Z,100.00
2023-03-17T07:50:22.704Z,94.86
2023-03-17T07:53:27.597Z,92.92
2023-03-17T07:56:31.834Z,97.07
2023-03-17T07:59:34.986Z,96.54
2023-03-17T08:02:38.455Z,90.43
2023-03-17T08:05:41.728Z,97.22
2023-03-17T08:08:47.047Z,91.82
2023-03-17T08:11:50.574Z,89.49
2023-03-17T08:14:55.330Z,91.95
2023-03-17T08:17:58.660Z,95.54
2023-03-17T08:21:01.976Z,98.58
2023-03-17T08:24:07.203Z,96.58
2023-03-17T08:27:10.452Z,88.46
2023-03-17T08:30:14.293Z,87.90
2023-03-17T08:33:17.731Z,90.25
2023-03-17T08:36:22.000Z,93.56
2023-03-17T08:39:26.629Z,89.80
2023-03-17T08:42:29.834Z,86.88
2023-03-17T08:45:33.259Z,90.40
2023-03-17T08:48:37.705Z,91.09
2023-03-17T08:51:41.830Z,87.38
2023-03-17T08:54:47.102Z,87.35
2023-03-17T08:57:50.223Z,88.17
2023-03-17T09:00:54.249Z,90.55
2023-03-17T09:03:57.506Z,84.00
2023-03-17T09:07:03.997Z,88.06
2023-03-17T09:10:10.760Z,88.55
2023-03-17T09:13:14.417Z,90.53
2023-03-17T09:16:18.253Z,83.43
2023-03-17T09:19:21.876Z,88.55
2023-03-17T09:22:25.172Z,90.22
2023-03-17T09:25:29.935Z,90.26
2023-03-17T09:28:33.199Z,89.03
2023-03-17T09:31:37.175Z,80.77
2023-03-17T09:34:40.409Z,83.25
2023-03-17T09:37:43.712Z,84.60
2023-03-17T09:40:54.272Z,78.99
2023-03-17T09:44:07.792Z,83.38
2023-03-17T09:47:27.122Z,78.47
2023-03-17T09:50:36.382Z,78.22
2023-03-17T09:53:48.856Z,80.82
2023-03-17T09:57:01.648Z,78.58
2023-03-17T10:00:07.826Z,77.61
2023-03-17T10:03:12.837Z,78.96
2023-03-17T10:06:35.908Z,78.85
2023-03-17T10:09:46.478Z,79.12
2023-03-17T10:12:57.794Z,76.26
2023-03-17T10:16:04.043Z,78.17
2023-03-17T10:19:18.290Z,81.42
2023-03-17T10:22:29.298Z,74.79
2023-03-17T10:25:34.272Z,81.73
2023-03-17T10:28:40.077Z,80.84
2023-03-17T10:34:19.029Z,73.53
2023-03-17T10:37:26.777Z,75.78
2023-03-17T10:40:32.604Z,73.14
2023-03-17T10:43:40.985Z,75.01
2023-03-17T10:46:54.005Z,71.75
2023-03-17T10:50:02.765Z,72.65
2023-03-17T10:53:09.477Z,70.18
2023-03-17T10:56:20.316Z,69.80
2023-03-17T11:02:45.403Z,75.80
2023-03-17T11:05:58.079Z,69.49
2023-03-17T11:09:09.255Z,74.57
2023-03-17T11:12:25.481Z,66.86
2023-03-17T11:15:34.726Z,65.87
2023-03-17T11:18:40.738Z,65.62
2023-03-17T11:21:54.369Z,68.13
2023-03-17T11:25:05.020Z,67.71
2023-03-17T11:28:19.768Z,64.77
2023-03-17T11:31:32.001Z,64.72
2023-03-17T11:34:56.784Z,61.91
2023-03-17T11:38:14.338Z,62.12
2023-03-17T11:41:36.313Z,69.44
2023-03-17T11:44:55.669Z,68.46
2023-03-17T11:48:11.456Z,62.19
2023-03-17T11:51:22.863Z,61.34
2023-03-17T11:54:38.537Z,57.60
2023-03-17T11:57:49.261Z,64.74
2023-03-17T12:00:57.914Z,61.37
2023-03-17T12:04:12.152Z,64.35
2023-03-17T12:07:21.800Z,59.64
2023-03-17T12:10:34.011Z,59.18
2023-03-17T12:13:42.998Z,50.68
2023-03-17T12:16:51.081Z,55.13
2023-03-17T12:20:06.680Z,52.01
2023-03-17T12:23:18.910Z,56.81
2023-03-17T12:26:34.148Z,55.93
2023-03-17T12:29:47.306Z,57.08
2023-03-17T12:33:00.203Z,51.55
2023-03-17T12:36:06.849Z,48.72
2023-03-17T12:39:14.431Z,49.07
2023-03-17T12:42:30.759Z,50.42
2023-03-17T12:46:02.953Z,58.72
2023-03-17T12:49:42.090Z,54.11
2023-03-17T12:53:10.247Z,57.17
2023-03-17T12:56:21.096Z,52.67
2023-03-17T12:59:27.042Z,51.90
2023-03-17T13:02:38.403Z,60.79
2023-03-17T13:05:48.066Z,59.74
2023-03-17T13:08:53.439Z,57.33
2023-03-17T13:11:56.961Z,52.62
2023-03-17T13:15:01.598Z,53.72
2023-03-17T13:18:44.952Z,61.01
2023-03-17T13:21:58.803Z,51.85
2023-03-17T13:25:17.117Z,49.55
2023-03-17T13:28:27.769Z,50.67
2023-03-17T13:31:37.626Z,50.48
2023-03-17T13:34:47.098Z,51.97
2023-03-17T13:38:08.089Z,50.72
2023-03-17T13:41:32.953Z,52.78
2023-03-17T13:44:51.762Z,50.19
2023-03-17T13:48:28.488Z,54.97
2023-03-17T13:51:34.424Z,58.64
2023-03-17T13:54:43.462Z,57.16
2023-03-17T13:57:56.984Z,48.50
2023-03-17T14:01:05.450Z,58.69
2023-03-17T14:04:20.390Z,49.14
2023-03-17T14:07:26.763Z,53.12
2023-03-17T14:10:33.170Z,58.67
2023-03-17T14:13:43.103Z,50.71
2023-03-17T14:16:53.294Z,60.11
2023-03-17T14:20:08.506Z,51.73
2023-03-17T14:23:12.318Z,55.33
2023-03-17T14:26:15.802Z,56.63
2023-03-17T14:29:22.549Z,63.81
2023-03-17T14:32:26.333Z,58.46
2023-03-17T14:35:37.374Z,55.46
2023-03-17T14:38:48.247Z,60.73
2023-03-17T14:42:02.637Z,50.96
2023-03-17T14:45:08.068Z,53.83
2023-03-17T14:48:15.696Z,53.82
2023-03-17T14:51:27.705Z,52.75
2023-03-17T14:54:34.346Z,54.24
2023-03-17T14:57:38.827Z,54.28
2023-03-17T15:00:46.735Z,55.03
2023-03-17T15:03:56.177Z,55.02
2023-03-17T15:07:02.636Z,63.12
2023-03-17T15:10:07.334Z,55.65
2023-03-17T15:13:13.726Z,56.76
2023-03-17T15:16:21.958Z,56.10
2023-03-17T15:19:28.980Z,53.99
2023-03-17T15:22:42.386Z,62.28
2023-03-17T15:25:48.515Z,62.44
2023-03-17T15:28:51.666Z,54.06
2023-03-17T15:32:00.929Z,57.56
2023-03-17T15:35:04.982Z,54.99
2023-03-17T15:38:12.686Z,55.32
2023-03-17T15:41:15.827Z,57.02
2023-03-17T15:44:18.924Z,55.02
2023-03-17T15:47:24.651Z,64.01
2023-03-17T15:50:31.161Z,57.01
2023-03-17T15:53:35.761Z,55.92
2023-03-17T15:56:39.674Z,57.71
2023-03-17T15:59:42.849Z,56.20
2023-03-17T16:02:47.788Z,58.11
2023-03-17T16:05:51.422Z,58.18
2023-03-17T16:08:56.513Z,57.98
2023-03-17T16:11:59.722Z,60.44
2023-03-17T16:15:10.367Z,60.05
2023-03-17T16:18:23.929Z,61.79
2023-03-17T16:21:27.713Z,61.97
2023-03-17T16:24:32.215Z,63.95
2023-03-17T16:27:35.318Z,64.28
2023-03-17T16:34:18.485Z,66.40
2023-03-17T16:37:21.761Z,67.77
2023-03-17T16:40:28.221Z,70.70
2023-03-17T16:43:35.511Z,70.34
2023-03-17T16:46:38.739Z,77.23
2023-03-17T16:49:43.647Z,77.05
2023-03-17T16:52:46.928Z,73.96
2023-03-17T16:55:51.487Z,73.95
2023-03-17T16:58:55.088Z,76.84
2023-03-17T17:01:58.477Z,79.02
2023-03-17T17:05:04.569Z,76.20
2023-03-17T17:08:08.279Z,78.39
2023-03-17T17:11:13.560Z,79.49
2023-03-17T17:14:17.007Z,79.49
2023-03-17T17:17:20.412Z,83.99
2023-03-17T17:20:28.639Z,82.72
2023-03-17T17:23:32.050Z,81.53
2023-03-17T17:26:35.263Z,83.37
2023-03-17T17:29:38.634Z,82.54
2023-03-17T17:32:42.161Z,82.70
2023-03-17T17:35:47.931Z,88.07
2023-03-17T17:38:51.724Z,84.77
2023-03-17T17:41:55.669Z,84.41
2023-03-17T17:44:58.807Z,84.69
2023-03-17T17:48:01.962Z,85.51
2023-03-17T17:51:06.909Z,85.27
2023-03-17T17:54:10.277Z,87.18
2023-03-17T17:57:13.825Z,94.65
2023-03-17T18:00:18.937Z,99.00
2023-03-17T18:03:25.113Z,93.84
2023-03-17T18:06:29.930Z,98.28
2023-03-17T18:09:35.633Z,100.00
2023-03-17T18:12:38.957Z,100.00
2023-03-17T18:15:42.341Z,100.00
2023-03-17T18:18:47.086Z,100.00
2023-03-17T18:21:51.699Z,100.00
2023-03-17T18:24:55.293Z,95.81
2023-03-17T18:28:00.812Z,95.55
2023-03-17T18:31:10.439Z,95.76
2023-03-17T18:34:19.047Z,100.00
2023-03-17T18:37:23.733Z,100.00
2023-03-17T18:40:27.530Z,100.00
2023-03-17T18:43:31.008Z,100.00
2023-03-17T18:46:34.223Z,100.00
2023-03-17T18:49:37.342Z,100.00
2023-03-17T18:52:43.894Z,100.00
2023-03-17T18:55:47.266Z,100.00
2023-03-17T18:58:50.847Z,100.00
2023-03-17T19:01:54.278Z,100.00
2023-03-17T19:04:57.427Z,100.00
2023-03-17T19:08:02.012Z,100.00
2023-03-17T19:11:06.663Z,100.00
2023-03-17T19:14:11.724Z,100.00
2023-03-17T19:17:14.920Z,100.00
2023-03-17T19:20:18.662Z,100.00
2023-03-17T19:23:23.631Z,100.00
2023-03-17T19:26:27.059Z,100.00
2023-03-17T19:29:30.391Z,100.00
2023-03-17T19:32:33.725Z,100.00
2023-03-17T19:35:36.948Z,100.00
2023-03-17T19:38:42.022Z,100.00
2023-03-17T19:41:47.355Z,100.00
2023-03-17T19:44:50.719Z,100.00
2023-03-17T19:47:54.266Z,100.00
2023-03-17T19:50:57.579Z,100.00
2023-03-17T19:54:02.594Z,100.00
2023-03-17T19:57:06.272Z,100.00
2023-03-17T20:00:11.768Z,100.00
2023-03-17T20:03:15.004Z,100.00
2023-03-17T20:06:18.391Z,100.00
2023-03-17T20:09:24.554Z,100.00
2023-03-17T20:12:27.994Z,100.00
2023-03-17T20:15:31.508Z,100.00
2023-03-17T20:18:35.056Z,100.00
2023-03-17T20:21:38.413Z,100.00
2023-03-17T20:24:43.462Z,100.00
2023-03-17T20:27:46.874Z,100.00
2023-03-17T20:30:50.523Z,100.00
2023-03-17T20:33:53.698Z,100.00
2023-03-17T20:36:56.877Z,100.00
2023-03-17T20:40:02.923Z,100.00
2023-03-17T20:43:06.656Z,100.00
2023-03-17T20:46:14.577Z,100.00
2023-03-17T20:49:17.985Z,100.00
2023-03-17T20:52:22.318Z,100.00
2023-03-17T20:55:27.401Z,100.00
2023-03-17T20:58:30.635Z,100.00
2023-03-17T21:01:36.725Z,100.00
2023-03-17T21:04:40.281Z,100.00
2023-03-17T21:07:43.473Z,100.00
2023-03-17T21:10:48.191Z,100.00
2023-03-17T21:13:51.840Z,100.00
2023-03-17T21:16:55.312Z,100.00
2023-03-17T21:19:58.931Z,100.00
2023-03-17T21:23:04.551Z,100.00
2023-03-17T21:26:10.113Z,100.00
2023-03-17T21:29:13.581Z,100.00
2023-03-17T21:32:16.739Z,100.00
2023-03-17T21:35:19.938Z,100.00
2023-03-17T21:38:23.097Z,100.00
2023-03-17T21:41:33.234Z,100.00
2023-03-17T21:44:36.406Z,100.00
2023-03-17T21:47:40.842Z,100.00
2023-03-17T21:50:44.247Z,100.00
2023-03-17T21:53:47.812Z,100.00
2023-03-17T21:56:52.698Z,100.00
2023-03-17T21:59:56.825Z,100.00
2023-03-17T22:03:01.460Z,100.00
2023-03-17T22:06:07.142Z,100.00
2023-03-17T22:09:10.908Z,100.00
2023-03-17T22:12:15.628Z,100.00
2023-03-17T22:15:19.774Z,100.00
2023-03-17T22:18:22.899Z,100.00
2023-03-17T22:21:26.049Z,100.00
2023-03-17T22:24:29.562Z,100.00
2023-03-17T22:27:34.577Z,100.00
2023-03-17T22:34:17.293Z,100.00
2023-03-17T22:37:20.901Z,100.00
2023-03-17T22:40:24.528Z,100.00
2023-03-17T22:43:28.570Z,100.00
2023-03-17T22:46:31.822Z,100.00
2023-03-17T22:49:36.653Z,100.00
2023-03-17T22:52:39.908Z,100.00
2023-03-17T22:55:43.521Z,100.00
2023-03-17T22:58:47.752Z,100.00
2023-03-17T23:01:50.970Z,100.00
2023-03-17T23:04:55.636Z,100.00
2023-03-17T23:07:58.782Z,100.00
2023-03-17T23:11:08.606Z,100.00
2023-03-17T23:14:13.119Z,100.00
2023-03-17T23:17:16.367Z,100.00
2023-03-17T23:20:21.167Z,100.00
2023-03-17T23:23:24.450Z,100.00
2023-03-17T23:26:27.805Z,100.00
2023-03-17T23:29:31.053Z,100.00
2023-03-17T23:32:34.757Z,100.00
2023-03-17T23:35:39.829Z,100.00
2023-03-17T23:38:43.977Z,100.00
2023-03-17T23:41:47.433Z,100.00
2023-03-17T23:44:51.583Z,100.00
2023-03-17T23:47:55.646Z,100.00
2023-03-17T23:51:01.027Z,100.00
2023-03-17T23:54:04.903Z,100.00
2023-03-17T23:57:08.333Z,100.00
